Time;durP1;ratioP1;P1;durP2;ratioP2;P2;SDS_P1;SDS_P2;PMS_P1;PMS_P2;Temp;Humidity;BMP_temperature;BMP_pressure;BME280_temperature;BME280_humidity;BME280_pressure;Samples;Min_cycle;Max_cycle;Signal;HPM_P1;HPM_P2
2021/07/09 00:02:21;;;;;;;14.43;13.02;;;;;;;;;;5133842;27;20225;-66
2021/07/09 00:04:49;;;;;;;15.75;14.10;;;;;;;;;;5133871;27;20287;-67
2021/07/09 00:07:18;;;;;;;14.77;13.38;;;;;;;;;;5133989;27;20653;-67
2021/07/09 00:09:47;;;;;;;14.15;12.90;;;;;;;;;;5133820;27;20741;-66
2021/07/09 00:12:15;;;;;;;14.93;13.52;;;;;;;;;;5134590;27;20199;-66
2021/07/09 00:14:44;;;;;;;13.20;11.98;;;;;;;;;;5141187;27;20207;-67
2021/07/09 00:17:12;;;;;;;14.45;13.15;;;;;;;;;;5141097;27;20289;-67
2021/07/09 00:19:42;;;;;;;12.98;11.88;;;;;;;;;;5137326;27;20255;-67
2021/07/09 00:22:10;;;;;;;13.82;11.80;;;;;;;;;;5133782;27;20221;-66
2021/07/09 00:24:38;;;;;;;13.02;11.90;;;;;;;;;;5133454;27;20689;-66
2021/07/09 00:27:07;;;;;;;13.35;12.10;;;;;;;;;;5133778;27;20202;-67
2021/07/09 00:29:35;;;;;;;11.93;10.93;;;;;;;;;;5133493;27;20293;-66
2021/07/09 00:32:03;;;;;;;12.90;11.60;;;;;;;;;;5132355;27;20202;-66
2021/07/09 00:34:31;;;;;;;12.57;11.45;;;;;;;;;;5133549;28;20199;-67
2021/07/09 00:37:01;;;;;;;12.02;10.82;;;;;;;;;;5133631;28;20282;-66
2021/07/09 00:39:29;;;;;;;12.52;11.35;;;;;;;;;;5133639;28;20310;-66
2021/07/09 00:41:57;;;;;;;11.85;10.65;;;;;;;;;;5133400;28;20198;-68
2021/07/09 00:44:25;;;;;;;12.20;11.05;;;;;;;;;;5119288;28;20205;-66
2021/07/09 00:46:54;;;;;;;10.73;9.70;;;;;;;;;;5112823;28;20219;-67
2021/07/09 00:49:22;;;;;;;14.23;11.73;;;;;;;;;;5113620;28;20199;-66
2021/07/09 00:51:51;;;;;;;11.82;10.73;;;;;;;;;;5133283;28;20187;-66
2021/07/09 00:54:21;;;;;;;12.15;10.95;;;;;;;;;;5133510;28;20277;-67
2021/07/09 00:56:49;;;;;;;11.68;10.68;;;;;;;;;;5133112;28;20199;-66
2021/07/09 00:59:22;;;;;;;11.10;10.07;;;;;;;;;;5133160;28;20621;-66
2021/07/09 01:01:51;;;;;;;11.35;10.18;;;;;;;;;;5133270;28;20597;-66
2021/07/09 01:04:19;;;;;;;11.45;10.13;;;;;;;;;;5132998;28;20210;-67
2021/07/09 01:06:48;;;;;;;11.02;10.00;;;;;;;;;;5133154;28;20313;-66
2021/07/09 01:09:16;;;;;;;9.75;8.95;;;;;;;;;;5133116;28;20203;-66
2021/07/09 01:11:48;;;;;;;10.93;10.02;;;;;;;;;;5133271;28;20199;-67
2021/07/09 01:14:16;;;;;;;10.50;9.55;;;;;;;;;;5132853;28;20204;-66
2021/07/09 01:16:45;;;;;;;10.43;9.60;;;;;;;;;;5132892;28;20199;-66
2021/07/09 01:19:15;;;;;;;10.38;9.38;;;;;;;;;;5132901;28;20761;-66
2021/07/09 01:21:44;;;;;;;10.60;9.57;;;;;;;;;;5133442;28;20199;-66
2021/07/09 01:24:14;;;;;;;11.18;10.27;;;;;;;;;;5133255;28;20258;-66
2021/07/09 01:26:42;;;;;;;10.93;9.93;;;;;;;;;;5133106;28;20223;-66
2021/07/09 01:29:12;;;;;;;10.27;9.38;;;;;;;;;;5132613;28;20298;-67
2021/07/09 01:31:40;;;;;;;10.60;9.65;;;;;;;;;;5132590;28;20198;-66
2021/07/09 01:34:08;;;;;;;12.57;9.57;;;;;;;;;;5132702;28;20693;-67
2021/07/09 01:36:37;;;;;;;10.15;9.15;;;;;;;;;;5132910;28;20199;-66
2021/07/09 01:39:05;;;;;;;11.40;10.25;;;;;;;;;;5133145;28;20195;-66
2021/07/09 01:41:35;;;;;;;11.27;9.77;;;;;;;;;;5133056;27;20195;-66
2021/07/09 01:44:04;;;;;;;9.18;8.32;;;;;;;;;;5136246;27;20297;-66
2021/07/09 01:46:32;;;;;;;12.32;10.05;;;;;;;;;;5136513;27;20212;-66
2021/07/09 01:49:00;;;;;;;11.43;9.98;;;;;;;;;;5136614;27;20225;-67
2021/07/09 01:51:29;;;;;;;12.05;10.85;;;;;;;;;;5136065;27;20233;-67
2021/07/09 01:53:57;;;;;;;11.75;10.57;;;;;;;;;;5136239;27;20195;-67
2021/07/09 01:56:25;;;;;;;12.32;11.00;;;;;;;;;;5136404;27;20198;-65
2021/07/09 01:58:55;;;;;;;11.75;10.63;;;;;;;;;;5135909;27;20584;-68
2021/07/09 02:01:23;;;;;;;12.35;11.10;;;;;;;;;;5136414;27;20235;-67
2021/07/09 02:03:52;;;;;;;10.50;9.50;;;;;;;;;;5135808;27;20646;-66
2021/07/09 02:06:20;;;;;;;12.35;11.10;;;;;;;;;;5136068;27;20314;-66
2021/07/09 02:08:48;;;;;;;13.40;12.00;;;;;;;;;;5136367;27;20231;-67
2021/07/09 02:11:16;;;;;;;13.05;11.82;;;;;;;;;;5133024;27;20969;-67
2021/07/09 02:13:44;;;;;;;12.45;11.25;;;;;;;;;;5136186;27;20199;-67
2021/07/09 02:16:14;;;;;;;12.20;10.93;;;;;;;;;;5136006;27;20195;-67
2021/07/09 02:18:42;;;;;;;13.77;12.48;;;;;;;;;;5135964;27;20249;-67
2021/07/09 02:21:14;;;;;;;13.88;12.57;;;;;;;;;;5136049;27;20186;-68
2021/07/09 02:23:43;;;;;;;12.88;11.60;;;;;;;;;;5136062;27;20205;-67
2021/07/09 02:26:11;;;;;;;14.07;12.68;;;;;;;;;;5135372;27;20222;-65
2021/07/09 02:28:39;;;;;;;15.50;12.60;;;;;;;;;;5135839;27;20200;-67
2021/07/09 02:31:07;;;;;;;13.55;12.25;;;;;;;;;;5135674;27;20198;-67
2021/07/09 02:33:37;;;;;;;14.50;13.10;;;;;;;;;;5135773;27;20213;-66
2021/07/09 02:36:05;;;;;;;16.30;12.48;;;;;;;;;;5135409;27;20233;-66
2021/07/09 02:38:33;;;;;;;15.15;13.68;;;;;;;;;;5135687;27;20289;-67
2021/07/09 02:41:01;;;;;;;13.70;12.50;;;;;;;;;;5135282;27;20202;-67
2021/07/09 02:43:29;;;;;;;14.90;13.35;;;;;;;;;;5135431;27;20201;-67
2021/07/09 02:45:58;;;;;;;14.57;13.18;;;;;;;;;;5135414;27;20250;-67
2021/07/09 02:48:26;;;;;;;12.93;11.80;;;;;;;;;;5135398;27;20203;-67
2021/07/09 02:50:56;;;;;;;16.05;13.15;;;;;;;;;;5134924;27;20231;-67
2021/07/09 02:53:24;;;;;;;15.32;13.80;;;;;;;;;;5134893;27;20574;-67
2021/07/09 02:55:52;;;;;;;14.82;13.23;;;;;;;;;;5134670;27;20198;-66
2021/07/09 02:58:20;;;;;;;15.07;13.65;;;;;;;;;;5135063;27;20212;-67
2021/07/09 03:00:48;;;;;;;14.70;13.27;;;;;;;;;;5134835;27;20289;-67
2021/07/09 03:03:16;;;;;;;15.52;13.90;;;;;;;;;;5135326;27;20205;-67
2021/07/09 03:05:45;;;;;;;15.75;13.57;;;;;;;;;;5134801;27;20195;-67
2021/07/09 03:08:14;;;;;;;15.10;13.52;;;;;;;;;;5135142;27;20294;-67
2021/07/09 03:10:43;;;;;;;13.95;12.55;;;;;;;;;;5134551;27;20207;-66
2021/07/09 03:13:11;;;;;;;15.60;14.00;;;;;;;;;;5134957;27;20201;-65
2021/07/09 03:15:39;;;;;;;13.98;12.68;;;;;;;;;;5134774;27;20281;-66
2021/07/09 03:18:08;;;;;;;15.13;13.48;;;;;;;;;;5134672;27;20199;-67
2021/07/09 03:20:36;;;;;;;14.18;12.50;;;;;;;;;;5134615;27;20199;-67
2021/07/09 03:23:04;;;;;;;13.27;12.07;;;;;;;;;;5134474;27;20290;-68
2021/07/09 03:25:34;;;;;;;14.05;12.38;;;;;;;;;;5134548;27;20307;-67
2021/07/09 03:28:02;;;;;;;13.82;12.60;;;;;;;;;;5134511;27;20218;-67
2021/07/09 03:30:30;;;;;;;14.68;13.18;;;;;;;;;;5134560;27;20289;-66
2021/07/09 03:32:58;;;;;;;13.82;12.63;;;;;;;;;;5134705;27;20212;-66
2021/07/09 03:35:26;;;;;;;14.85;13.50;;;;;;;;;;5134186;27;20194;-67
2021/07/09 03:37:55;;;;;;;14.23;12.77;;;;;;;;;;5134155;27;20577;-66
2021/07/09 03:40:23;;;;;;;14.43;13.13;;;;;;;;;;5134047;27;20199;-67
2021/07/09 03:42:52;;;;;;;15.23;12.50;;;;;;;;;;5134273;27;20205;-67
2021/07/09 03:45:21;;;;;;;13.60;12.13;;;;;;;;;;5134019;27;20756;-66
2021/07/09 03:47:49;;;;;;;13.88;12.68;;;;;;;;;;5134346;27;20215;-67
2021/07/09 03:50:17;;;;;;;13.20;11.75;;;;;;;;;;5133783;27;20789;-67
2021/07/09 03:52:45;;;;;;;12.50;11.40;;;;;;;;;;5134317;27;20289;-67
2021/07/09 03:55:14;;;;;;;13.30;12.00;;;;;;;;;;5133833;27;20205;-69
2021/07/09 03:57:42;;;;;;;12.25;11.13;;;;;;;;;;5134254;27;20278;-67
2021/07/09 04:00:12;;;;;;;15.30;11.65;;;;;;;;;;5134112;27;20199;-68
2021/07/09 04:02:41;;;;;;;12.13;11.05;;;;;;;;;;5134300;27;20179;-67
2021/07/09 04:05:10;;;;;;;12.95;11.68;;;;;;;;;;5133932;27;20229;-68
2021/07/09 04:07:39;;;;;;;14.73;11.13;;;;;;;;;;5134074;27;20644;-68
2021/07/09 04:10:07;;;;;;;11.40;10.40;;;;;;;;;;5133679;27;20233;-67
2021/07/09 04:12:36;;;;;;;13.05;11.10;;;;;;;;;;5134057;27;20198;-67
2021/07/09 04:15:04;;;;;;;12.32;11.13;;;;;;;;;;5133459;27;20293;-67
2021/07/09 04:17:34;;;;;;;12.40;11.20;;;;;;;;;;5134015;27;20610;-66
2021/07/09 04:20:02;;;;;;;11.75;10.55;;;;;;;;;;5133351;27;20769;-67
2021/07/09 04:22:30;;;;;;;13.27;11.93;;;;;;;;;;5133617;27;20289;-67
2021/07/09 04:24:58;;;;;;;12.90;11.75;;;;;;;;;;5133563;27;20306;-68
2021/07/09 04:27:27;;;;;;;12.60;11.38;;;;;;;;;;5133778;27;20215;-67
2021/07/09 04:29:55;;;;;;;12.80;11.60;;;;;;;;;;5133662;28;20194;-68
2021/07/09 04:32:23;;;;;;;12.63;11.35;;;;;;;;;;5133748;28;20194;-67
2021/07/09 04:34:53;;;;;;;12.98;11.88;;;;;;;;;;5133620;28;20210;-67
2021/07/09 04:37:21;;;;;;;13.07;11.77;;;;;;;;;;5133580;28;20190;-67
2021/07/09 04:39:49;;;;;;;14.93;12.90;;;;;;;;;;5133043;28;20297;-67
2021/07/09 04:42:17;;;;;;;14.55;12.57;;;;;;;;;;5133613;28;20202;-67
2021/07/09 04:44:45;;;;;;;15.93;14.48;;;;;;;;;;5116932;28;20206;-67
2021/07/09 04:47:14;;;;;;;16.80;15.00;;;;;;;;;;5112960;28;20221;-66
2021/07/09 04:49:42;;;;;;;16.50;14.93;;;;;;;;;;5116142;28;20690;-66
2021/07/09 04:52:11;;;;;;;17.55;15.80;;;;;;;;;;5133286;28;20198;-68
2021/07/09 04:54:40;;;;;;;16.55;14.85;;;;;;;;;;5133122;28;20202;-68
2021/07/09 04:57:08;;;;;;;15.27;13.80;;;;;;;;;;5133120;28;20194;-67
2021/07/09 04:59:36;;;;;;;15.60;14.10;;;;;;;;;;5133515;28;20194;-67
2021/07/09 05:02:05;;;;;;;17.08;14.25;;;;;;;;;;5133413;28;20309;-68
2021/07/09 05:04:33;;;;;;;15.95;14.45;;;;;;;;;;5133335;28;20668;-69
2021/07/09 05:07:01;;;;;;;16.27;14.50;;;;;;;;;;5138665;28;20659;-67
2021/07/09 05:09:30;;;;;;;15.27;13.85;;;;;;;;;;5139615;28;20298;-68
2021/07/09 05:11:59;;;;;;;16.20;14.55;;;;;;;;;;5137893;28;20268;-67
2021/07/09 05:14:28;;;;;;;14.55;13.27;;;;;;;;;;5133184;28;20205;-70
2021/07/09 05:16:56;;;;;;;14.80;13.40;;;;;;;;;;5133487;27;20244;-67
2021/07/09 05:19:24;;;;;;;15.63;14.13;;;;;;;;;;5137290;27;20198;-66
2021/07/09 05:21:53;;;;;;;15.23;13.70;;;;;;;;;;5137101;27;20205;-67
2021/07/09 05:24:25;;;;;;;15.18;13.57;;;;;;;;;;5136837;27;20202;-67
2021/07/09 05:26:55;;;;;;;14.55;13.05;;;;;;;;;;5137041;27;20240;-67
2021/07/09 05:29:23;;;;;;;15.23;13.73;;;;;;;;;;5136729;27;20305;-68
2021/07/09 05:31:53;;;;;;;15.07;13.73;;;;;;;;;;5136610;27;20213;-67
2021/07/09 05:34:21;;;;;;;18.17;13.48;;;;;;;;;;5136986;27;20209;-66
2021/07/09 05:36:50;;;;;;;14.45;13.05;;;;;;;;;;5136882;27;20206;-67
2021/07/09 05:39:18;;;;;;;16.10;14.50;;;;;;;;;;5136563;27;20749;-66
2021/07/09 05:41:47;;;;;;;16.25;14.65;;;;;;;;;;5136742;27;20203;-65
2021/07/09 05:44:17;;;;;;;15.85;13.93;;;;;;;;;;5136398;27;20205;-66
2021/07/09 05:46:47;;;;;;;16.40;14.80;;;;;;;;;;5136679;27;20183;-66
2021/07/09 05:49:16;;;;;;;17.02;14.88;;;;;;;;;;5136546;27;20274;-67
2021/07/09 05:51:45;;;;;;;15.90;14.18;;;;;;;;;;5136056;27;20245;-66
2021/07/09 05:54:13;;;;;;;15.15;13.85;;;;;;;;;;5136664;27;20205;-67
2021/07/09 05:56:41;;;;;;;14.38;13.18;;;;;;;;;;5136243;27;20202;-66
2021/07/09 05:59:09;;;;;;;18.52;15.10;;;;;;;;;;5136563;27;20195;-68
2021/07/09 06:01:39;;;;;;;17.05;15.35;;;;;;;;;;5136234;27;20209;-68
2021/07/09 06:04:07;;;;;;;16.45;14.75;;;;;;;;;;5135757;27;20678;-67
2021/07/09 06:06:35;;;;;;;14.32;13.15;;;;;;;;;;5135804;27;20201;-67
2021/07/09 06:09:03;;;;;;;14.57;13.30;;;;;;;;;;5136037;27;20608;-66
2021/07/09 06:11:32;;;;;;;15.05;13.65;;;;;;;;;;5136107;27;20201;-67
2021/07/09 06:14:00;;;;;;;14.77;13.45;;;;;;;;;;5136064;27;20237;-68
2021/07/09 06:16:28;;;;;;;13.38;12.15;;;;;;;;;;5135833;27;20198;-67
2021/07/09 06:18:58;;;;;;;12.88;11.68;;;;;;;;;;5136220;27;20301;-68
2021/07/09 06:21:27;;;;;;;11.90;10.80;;;;;;;;;;5136102;27;20251;-66
2021/07/09 06:23:56;;;;;;;11.77;10.75;;;;;;;;;;5136186;27;20328;-67
2021/07/09 06:26:24;;;;;;;11.20;10.18;;;;;;;;;;5136098;27;20199;-66
2021/07/09 06:28:53;;;;;;;11.52;10.40;;;;;;;;;;5134645;27;20221;-68
2021/07/09 06:31:21;;;;;;;11.43;10.32;;;;;;;;;;5135698;27;20289;-67
2021/07/09 06:33:50;;;;;;;11.52;10.52;;;;;;;;;;5132864;27;20207;-68
2021/07/09 06:36:19;;;;;;;11.52;10.63;;;;;;;;;;5135688;27;20221;-66
2021/07/09 06:38:48;;;;;;;11.50;10.38;;;;;;;;;;5135675;27;20190;-67
2021/07/09 06:41:16;;;;;;;12.07;10.98;;;;;;;;;;5135627;27;20198;-66
2021/07/09 06:43:45;;;;;;;11.75;10.75;;;;;;;;;;5135251;27;20285;-66
2021/07/09 06:46:13;;;;;;;13.25;10.68;;;;;;;;;;5135162;27;20688;-65
2021/07/09 06:48:41;;;;;;;10.90;10.00;;;;;;;;;;5134846;27;20215;-66
2021/07/09 06:51:10;;;;;;;9.90;9.10;;;;;;;;;;5135010;27;20227;-66
2021/07/09 06:53:40;;;;;;;10.60;9.80;;;;;;;;;;5135596;27;20245;-66
2021/07/09 06:56:08;;;;;;;11.35;10.45;;;;;;;;;;5135525;27;20215;-66
2021/07/09 06:58:36;;;;;;;10.93;10.07;;;;;;;;;;5135390;27;20217;-67
2021/07/09 07:01:05;;;;;;;11.52;10.52;;;;;;;;;;5135047;27;20281;-67
2021/07/09 07:03:33;;;;;;;12.05;11.02;;;;;;;;;;5134879;27;20251;-67
2021/07/09 07:06:02;;;;;;;10.63;9.63;;;;;;;;;;5134907;27;20205;-67
2021/07/09 07:08:30;;;;;;;10.60;9.70;;;;;;;;;;5135149;27;20257;-66
2021/07/09 07:10:59;;;;;;;11.38;10.48;;;;;;;;;;5134805;27;20737;-66
2021/07/09 07:13:28;;;;;;;11.38;10.38;;;;;;;;;;5135004;27;20199;-66
2021/07/09 07:15:56;;;;;;;11.23;10.23;;;;;;;;;;5134796;27;20206;-67
2021/07/09 07:18:25;;;;;;;10.20;9.30;;;;;;;;;;5134168;27;20643;-67
2021/07/09 07:20:54;;;;;;;11.00;9.98;;;;;;;;;;5134677;27;20209;-67
2021/07/09 07:23:22;;;;;;;10.45;9.55;;;;;;;;;;5134478;27;20636;-67
2021/07/09 07:25:50;;;;;;;10.85;9.93;;;;;;;;;;5134766;27;20252;-67
2021/07/09 07:28:21;;;;;;;11.05;10.05;;;;;;;;;;5134530;27;20199;-66
2021/07/09 07:31:08;;;;;;;11.43;10.35;;;;;;;;;;5134226;27;20199;-66
2021/07/09 07:33:37;;;;;;;11.30;10.18;;;;;;;;;;5134533;27;20199;-67
2021/07/09 07:36:15;;;;;;;11.52;10.45;;;;;;;;;;5134402;27;20191;-66
2021/07/09 07:38:43;;;;;;;12.20;11.20;;;;;;;;;;5134266;27;20643;-66
2021/07/09 07:41:11;;;;;;;11.57;10.57;;;;;;;;;;5134161;27;20202;-66
2021/07/09 07:43:42;;;;;;;11.27;10.25;;;;;;;;;;5126742;27;20206;-66
2021/07/09 07:46:10;;;;;;;11.20;10.20;;;;;;;;;;5114630;27;20274;-65
2021/07/09 07:48:39;;;;;;;11.68;10.50;;;;;;;;;;5133483;27;20222;-66
2021/07/09 07:51:07;;;;;;;11.38;10.38;;;;;;;;;;5133646;27;20314;-66
2021/07/09 07:53:36;;;;;;;10.25;9.43;;;;;;;;;;5134200;27;20245;-66
2021/07/09 07:56:05;;;;;;;8.88;8.13;;;;;;;;;;5133269;27;20209;-66
2021/07/09 07:58:34;;;;;;;9.63;8.93;;;;;;;;;;5134234;27;20202;-66
2021/07/09 08:01:04;;;;;;;9.52;8.73;;;;;;;;;;5133463;27;20229;-66
2021/07/09 08:03:32;;;;;;;7.78;7.07;;;;;;;;;;5133656;27;20680;-66
2021/07/09 08:06:01;;;;;;;6.85;6.35;;;;;;;;;;5133813;27;20234;-66
2021/07/09 08:08:29;;;;;;;7.60;7.00;;;;;;;;;;5133607;27;20199;-66
2021/07/09 08:10:57;;;;;;;7.97;7.38;;;;;;;;;;5123015;27;20289;-66
2021/07/09 08:13:26;;;;;;;7.93;7.25;;;;;;;;;;5113446;28;20264;-64
2021/07/09 08:15:54;;;;;;;7.72;7.13;;;;;;;;;;5112998;28;20218;-63
2021/07/09 08:18:24;;;;;;;7.22;6.72;;;;;;;;;;5113325;28;20203;-64
2021/07/09 08:20:52;;;;;;;8.13;7.30;;;;;;;;;;5112937;28;20667;-64
2021/07/09 08:23:20;;;;;;;9.23;8.50;;;;;;;;;;5113079;28;20290;-65
2021/07/09 08:25:50;;;;;;;9.05;8.35;;;;;;;;;;5112655;28;20286;-65
2021/07/09 08:28:21;;;;;;;9.88;9.07;;;;;;;;;;5113076;28;20275;-65
2021/07/09 08:30:49;;;;;;;9.93;9.13;;;;;;;;;;5112687;28;20736;-66
2021/07/09 08:33:17;;;;;;;10.50;9.60;;;;;;;;;;5113201;28;20250;-66
2021/07/09 08:35:47;;;;;;;11.23;10.13;;;;;;;;;;5113235;28;20195;-66
2021/07/09 08:38:15;;;;;;;12.45;10.38;;;;;;;;;;5113191;28;20203;-66
2021/07/09 08:40:44;;;;;;;11.48;10.38;;;;;;;;;;5112871;28;20191;-65
2021/07/09 08:43:29;;;;;;;11.55;10.45;;;;;;;;;;5118674;28;20187;-66
2021/07/09 08:45:57;;;;;;;12.23;11.00;;;;;;;;;;5133589;28;20229;-66
2021/07/09 08:48:26;;;;;;;11.07;10.10;;;;;;;;;;5133284;28;20202;-66
2021/07/09 08:50:58;;;;;;;10.07;9.18;;;;;;;;;;5133134;28;20333;-65
2021/07/09 08:53:26;;;;;;;11.60;10.40;;;;;;;;;;5136693;27;20277;-65
2021/07/09 08:55:54;;;;;;;10.93;9.88;;;;;;;;;;5137645;27;20217;-66
2021/07/09 08:58:22;;;;;;;9.82;8.90;;;;;;;;;;5137502;27;20664;-65
2021/07/09 09:00:51;;;;;;;9.32;8.55;;;;;;;;;;5137598;27;20191;-65
2021/07/09 09:03:20;;;;;;;9.45;8.55;;;;;;;;;;5137757;27;20198;-66
2021/07/09 09:05:48;;;;;;;9.00;8.13;;;;;;;;;;5137600;27;20285;-65
2021/07/09 09:08:19;;;;;;;9.15;8.35;;;;;;;;;;5137219;27;20658;-65
2021/07/09 09:10:47;;;;;;;8.63;7.82;;;;;;;;;;5137243;27;20225;-65
2021/07/09 09:13:22;;;;;;;9.48;8.57;;;;;;;;;;5137432;27;20540;-65
2021/07/09 09:15:59;;;;;;;8.70;8.00;;;;;;;;;;5137380;27;20239;-64
2021/07/09 09:18:37;;;;;;;9.00;8.20;;;;;;;;;;5137453;27;20183;-63
2021/07/09 09:21:06;;;;;;;10.45;9.55;;;;;;;;;;5137483;27;20557;-64
2021/07/09 09:23:36;;;;;;;9.07;8.27;;;;;;;;;;5137066;27;20294;-65
2021/07/09 09:26:06;;;;;;;9.30;8.57;;;;;;;;;;5136872;27;20187;-65
2021/07/09 09:28:38;;;;;;;10.27;9.30;;;;;;;;;;5137074;27;20195;-64
2021/07/09 09:31:06;;;;;;;9.20;8.30;;;;;;;;;;5136945;27;20219;-65
2021/07/09 09:33:36;;;;;;;9.07;8.27;;;;;;;;;;5137412;27;20671;-64
2021/07/09 09:36:07;;;;;;;9.32;8.63;;;;;;;;;;5136923;27;20658;-64
2021/07/09 09:38:37;;;;;;;8.98;8.18;;;;;;;;;;5137087;27;20240;-64
2021/07/09 09:41:06;;;;;;;8.50;7.78;;;;;;;;;;5136933;27;20191;-65
2021/07/09 09:43:35;;;;;;;8.50;7.80;;;;;;;;;;5136531;27;20547;-64
2021/07/09 09:46:08;;;;;;;8.20;7.40;;;;;;;;;;5136742;27;20198;-65
2021/07/09 09:48:37;;;;;;;8.68;7.88;;;;;;;;;;5137079;27;20194;-64
2021/07/09 09:51:23;;;;;;;8.50;7.78;;;;;;;;;;5136570;27;20226;-66
2021/07/09 09:53:56;;;;;;;8.05;7.35;;;;;;;;;;5136788;27;20183;-64
2021/07/09 09:56:38;;;;;;;8.57;7.88;;;;;;;;;;5136437;27;20642;-64
2021/07/09 09:59:12;;;;;;;7.38;6.80;;;;;;;;;;5137032;27;20198;-63
2021/07/09 10:01:46;;;;;;;6.68;6.13;;;;;;;;;;5142880;27;20189;-64
2021/07/09 10:04:15;;;;;;;5.90;5.40;;;;;;;;;;5146259;27;20187;-64
2021/07/09 10:06:44;;;;;;;5.57;5.07;;;;;;;;;;5138564;27;20199;-65
2021/07/09 10:09:14;;;;;;;5.68;5.28;;;;;;;;;;5135743;27;20237;-64
2021/07/09 10:11:43;;;;;;;5.63;5.13;;;;;;;;;;5136235;27;20310;-65
2021/07/09 10:14:12;;;;;;;5.82;5.43;;;;;;;;;;5136350;27;20198;-66
2021/07/09 10:16:41;;;;;;;5.45;5.05;;;;;;;;;;5136148;27;20321;-64
2021/07/09 10:19:10;;;;;;;5.10;4.70;;;;;;;;;;5136339;27;20206;-63
2021/07/09 10:21:39;;;;;;;5.15;4.75;;;;;;;;;;5136484;27;20263;-64
2021/07/09 10:24:08;;;;;;;5.22;4.82;;;;;;;;;;5135661;27;20708;-65
2021/07/09 10:26:42;;;;;;;6.07;5.57;;;;;;;;;;5136014;27;20222;-65
2021/07/09 10:29:11;;;;;;;5.55;5.10;;;;;;;;;;5136494;27;20270;-65
2021/07/09 10:31:40;;;;;;;5.22;4.85;;;;;;;;;;5136670;27;20214;-66
2021/07/09 10:34:25;;;;;;;5.30;4.80;;;;;;;;;;5136436;27;20194;-64
2021/07/09 10:36:54;;;;;;;5.45;4.95;;;;;;;;;;5135368;27;20867;-66
2021/07/09 10:39:32;;;;;;;4.93;4.63;;;;;;;;;;5135559;27;20230;-65
2021/07/09 10:42:14;;;;;;;4.88;4.55;;;;;;;;;;5135826;27;20594;-64
2021/07/09 10:44:56;;;;;;;4.53;4.22;;;;;;;;;;5119521;27;20188;-64
2021/07/09 10:47:24;;;;;;;4.50;4.20;;;;;;;;;;5115182;28;20274;-64
2021/07/09 10:49:56;;;;;;;4.38;4.07;;;;;;;;;;5119864;27;20227;-64
2021/07/09 10:52:42;;;;;;;5.20;4.80;;;;;;;;;;5135249;27;20516;-64
2021/07/09 10:55:26;;;;;;;5.93;5.40;;;;;;;;;;5135433;27;20194;-64
2021/07/09 10:58:24;;;;;;;4.97;4.57;;;;;;;;;;5129985;27;20642;-65
2021/07/09 11:00:55;;;;;;;4.60;3.88;;;;;;;;;;5031348;28;20651;-64
2021/07/09 11:03:35;;;;;;;4.28;3.97;;;;;;;;;;5113973;27;20293;-64
2021/07/09 11:06:07;;;;;;;4.32;4.03;;;;;;;;;;5141946;27;20190;-65
2021/07/09 11:08:41;;;;;;;5.10;4.70;;;;;;;;;;5135161;27;20210;-64
2021/07/09 11:11:12;;;;;;;5.10;4.70;;;;;;;;;;5141714;27;20609;-65
2021/07/09 11:13:50;;;;;;;5.50;5.10;;;;;;;;;;5134984;27;20218;-63
2021/07/09 11:16:26;;;;;;;4.68;4.38;;;;;;;;;;5134443;27;20244;-64
2021/07/09 11:19:03;;;;;;;4.95;4.55;;;;;;;;;;5122481;27;20274;-64
2021/07/09 11:21:52;;;;;;;4.80;4.35;;;;;;;;;;5114478;28;20232;-64
2021/07/09 11:24:27;;;;;;;5.25;4.85;;;;;;;;;;5114427;28;20294;-64
2021/07/09 11:27:01;;;;;;;5.15;4.47;;;;;;;;;;5114070;28;20252;-64
2021/07/09 11:29:38;;;;;;;5.10;4.70;;;;;;;;;;5114040;28;20269;-64
2021/07/09 11:32:14;;;;;;;5.40;5.00;;;;;;;;;;5114605;28;20207;-64
2021/07/09 11:34:43;;;;;;;5.85;5.35;;;;;;;;;;5114505;28;20207;-63
2021/07/09 11:37:12;;;;;;;6.18;5.57;;;;;;;;;;5113900;28;20227;-64
2021/07/09 11:39:41;;;;;;;6.13;5.70;;;;;;;;;;5114451;28;20199;-63
2021/07/09 11:42:10;;;;;;;7.68;5.32;;;;;;;;;;5113874;28;20219;-65
2021/07/09 11:44:40;;;;;;;4.97;4.47;;;;;;;;;;5129431;27;20282;-64
2021/07/09 11:47:09;;;;;;;5.28;4.40;;;;;;;;;;5134009;27;20289;-63
2021/07/09 11:49:41;;;;;;;4.90;4.35;;;;;;;;;;5134518;27;20242;-64
2021/07/09 11:52:10;;;;;;;4.32;3.50;;;;;;;;;;5134689;27;20209;-63
2021/07/09 11:54:39;;;;;;;3.58;3.38;;;;;;;;;;5134435;27;20198;-64
2021/07/09 11:57:09;;;;;;;3.03;2.70;;;;;;;;;;5133632;27;20693;-64
2021/07/09 11:59:38;;;;;;;2.67;2.40;;;;;;;;;;5133789;27;20202;-64
2021/07/09 12:02:16;;;;;;;2.60;2.40;;;;;;;;;;5133841;27;20195;-63
2021/07/09 12:04:47;;;;;;;3.20;3.00;;;;;;;;;;5133539;27;20206;-64
2021/07/09 12:07:16;;;;;;;3.22;3.03;;;;;;;;;;5133842;27;20203;-64
2021/07/09 12:09:45;;;;;;;3.00;2.78;;;;;;;;;;5133774;27;20203;-64
2021/07/09 12:12:14;;;;;;;3.20;3.00;;;;;;;;;;5133609;27;20226;-63
2021/07/09 12:14:53;;;;;;;2.92;2.72;;;;;;;;;;5133984;27;20230;-64
2021/07/09 12:17:21;;;;;;;3.28;3.05;;;;;;;;;;5133478;27;20202;-65
2021/07/09 12:19:54;;;;;;;2.90;2.70;;;;;;;;;;5134026;27;20195;-65
2021/07/09 12:22:23;;;;;;;3.15;2.80;;;;;;;;;;5133815;27;20258;-65
2021/07/09 12:24:52;;;;;;;3.10;2.90;;;;;;;;;;5133781;27;20194;-65
2021/07/09 12:27:21;;;;;;;3.80;3.40;;;;;;;;;;5132993;27;20213;-66
2021/07/09 12:29:50;;;;;;;3.20;3.00;;;;;;;;;;5133485;27;20285;-65
2021/07/09 12:32:18;;;;;;;3.10;2.90;;;;;;;;;;5133605;27;20272;-65
2021/07/09 12:34:46;;;;;;;3.17;2.97;;;;;;;;;;5133685;28;20199;-64
2021/07/09 12:37:23;;;;;;;3.58;3.28;;;;;;;;;;5133674;28;20281;-65
2021/07/09 12:39:51;;;;;;;3.92;2.85;;;;;;;;;;5133486;28;20638;-66
2021/07/09 12:42:34;;;;;;;3.08;2.88;;;;;;;;;;5132997;28;20514;-65
2021/07/09 12:45:02;;;;;;;3.28;3.08;;;;;;;;;;5114447;28;20226;-65
2021/07/09 12:47:33;;;;;;;3.70;3.40;;;;;;;;;;5113028;28;20221;-64
2021/07/09 12:50:14;;;;;;;4.43;4.00;;;;;;;;;;5118678;28;20273;-64
2021/07/09 12:52:43;;;;;;;4.38;3.85;;;;;;;;;;5133019;28;20647;-65
2021/07/09 12:55:30;;;;;;;4.40;4.00;;;;;;;;;;5133194;28;20286;-65
2021/07/09 12:58:08;;;;;;;5.05;4.63;;;;;;;;;;5133455;28;20229;-65
2021/07/09 13:00:44;;;;;;;4.93;3.85;;;;;;;;;;5132985;28;20187;-65
2021/07/09 13:03:13;;;;;;;3.90;3.60;;;;;;;;;;5133247;28;20286;-65
2021/07/09 13:05:41;;;;;;;4.78;4.38;;;;;;;;;;5133407;28;20222;-66
2021/07/09 13:08:12;;;;;;;6.13;4.60;;;;;;;;;;5133449;28;20293;-66
2021/07/09 13:10:41;;;;;;;4.95;4.55;;;;;;;;;;5132986;28;20274;-65
2021/07/09 13:13:19;;;;;;;5.57;5.18;;;;;;;;;;5132949;28;20299;-64
2021/07/09 13:16:00;;;;;;;4.88;4.47;;;;;;;;;;5133142;28;20187;-64
2021/07/09 13:18:28;;;;;;;4.68;4.22;;;;;;;;;;5133372;28;20238;-65
2021/07/09 13:21:00;;;;;;;6.85;4.70;;;;;;;;;;5133311;28;20201;-65
2021/07/09 13:23:29;;;;;;;5.53;5.03;;;;;;;;;;5133090;28;20182;-64
2021/07/09 13:26:05;;;;;;;5.57;5.18;;;;;;;;;;5132680;28;20652;-64
2021/07/09 13:28:44;;;;;;;5.63;5.07;;;;;;;;;;5133186;28;20193;-62
2021/07/09 13:31:12;;;;;;;5.10;4.60;;;;;;;;;;5133247;28;20285;-63
2021/07/09 13:33:44;;;;;;;5.93;4.25;;;;;;;;;;5133107;28;20245;-64
2021/07/09 13:36:14;;;;;;;4.70;4.30;;;;;;;;;;5133270;28;20199;-63
2021/07/09 13:38:46;;;;;;;4.80;4.28;;;;;;;;;;5134855;27;20183;-64
2021/07/09 13:41:15;;;;;;;4.53;4.13;;;;;;;;;;5136530;27;20205;-65
2021/07/09 13:43:45;;;;;;;5.95;5.35;;;;;;;;;;5136408;27;20641;-64
2021/07/09 13:46:13;;;;;;;4.55;4.15;;;;;;;;;;5136631;27;20187;-63
2021/07/09 13:48:42;;;;;;;5.07;4.65;;;;;;;;;;5136799;27;20210;-65
2021/07/09 13:51:14;;;;;;;4.47;4.07;;;;;;;;;;5136276;27;20223;-64
2021/07/09 13:53:42;;;;;;;4.70;4.30;;;;;;;;;;5136368;27;20203;-66
2021/07/09 13:56:12;;;;;;;4.70;4.30;;;;;;;;;;5136061;27;20554;-66
2021/07/09 13:58:42;;;;;;;4.57;4.18;;;;;;;;;;5136639;27;20244;-66
2021/07/09 14:01:14;;;;;;;5.55;4.82;;;;;;;;;;5136517;27;20191;-65
2021/07/09 14:03:43;;;;;;;4.82;4.43;;;;;;;;;;5136571;27;20199;-66
2021/07/09 14:06:13;;;;;;;5.32;4.82;;;;;;;;;;5136553;27;20285;-66
2021/07/09 14:08:42;;;;;;;5.47;5.00;;;;;;;;;;5136324;27;20237;-65
2021/07/09 14:11:10;;;;;;;5.00;4.60;;;;;;;;;;5136252;27;20292;-63
2021/07/09 14:13:40;;;;;;;5.28;4.72;;;;;;;;;;5135639;27;20222;-63
2021/07/09 14:16:08;;;;;;;5.32;4.82;;;;;;;;;;5135571;27;20267;-64
2021/07/09 14:18:36;;;;;;;5.28;4.53;;;;;;;;;;5134819;27;20550;-64
2021/07/09 14:21:04;;;;;;;5.05;4.60;;;;;;;;;;5135342;27;20203;-64
2021/07/09 14:23:33;;;;;;;4.50;4.10;;;;;;;;;;5135576;27;20705;-64
2021/07/09 14:26:01;;;;;;;5.00;4.50;;;;;;;;;;5135585;27;20204;-65
2021/07/09 14:28:29;;;;;;;4.78;4.32;;;;;;;;;;5135603;27;20206;-65
2021/07/09 14:31:01;;;;;;;5.15;4.35;;;;;;;;;;5135711;27;20210;-65
2021/07/09 14:33:30;;;;;;;5.50;5.00;;;;;;;;;;5135686;27;20205;-63
2021/07/09 14:35:58;;;;;;;4.75;4.35;;;;;;;;;;5136006;27;20286;-64
2021/07/09 14:38:26;;;;;;;4.72;4.32;;;;;;;;;;5136123;27;20198;-64
2021/07/09 14:40:54;;;;;;;4.80;4.40;;;;;;;;;;5135887;27;20298;-64
2021/07/09 14:43:22;;;;;;;4.97;4.47;;;;;;;;;;5130659;27;20199;-65
2021/07/09 14:45:50;;;;;;;5.05;4.55;;;;;;;;;;5114737;28;20294;-66